sensor_id;sensor_type;location;lat;lon;timestamp;temperature;humidity
76120;DHT22;64852;48.092;-1.640;2023-12-14T00:00:21;9.30;99.90
76120;DHT22;64852;48.092;-1.640;2023-12-14T00:02:47;9.10;99.90
76120;DHT22;64852;48.092;-1.640;2023-12-14T00:05:12;9.50;99.90
76120;DHT22;64852;48.092;-1.640;2023-12-14T00:07:38;9.20;99.90
76120;DHT22;64852;48.092;-1.640;2023-12-14T00:10:04;10.30;99.90
76120;DHT22;64852;48.092;-1.640;2023-12-14T00:12:31;9.20;99.90
76120;DHT22;64852;48.092;-1.640;2023-12-14T00:14:56;9.90;99.90
76120;DHT22;64852;48.092;-1.640;2023-12-14T00:17:22;9.30;99.90
76120;DHT22;64852;48.092;-1.640;2023-12-14T00:19:48;9.30;99.90
76120;DHT22;64852;48.092;-1.640;2023-12-14T00:22:13;10.20;99.90
76120;DHT22;64852;48.092;-1.640;2023-12-14T00:24:39;9.20;99.90
76120;DHT22;64852;48.092;-1.640;2023-12-14T00:27:04;9.20;99.90
76120;DHT22;64852;48.092;-1.640;2023-12-14T00:29:30;10.10;99.90
76120;DHT22;64852;48.092;-1.640;2023-12-14T00:31:56;9.30;99.90
76120;DHT22;64852;48.092;-1.640;2023-12-14T00:34:21;9.80;99.90
76120;DHT22;64852;48.092;-1.640;2023-12-14T00:36:47;10.20;99.90
76120;DHT22;64852;48.092;-1.640;2023-12-14T00:39:12;9.20;99.90
76120;DHT22;64852;48.092;-1.640;2023-12-14T00:41:38;9.30;99.90
76120;DHT22;64852;48.092;-1.640;2023-12-14T00:44:04;9.50;99.90
76120;DHT22;64852;48.092;-1.640;2023-12-14T00:46:29;10.10;99.90
76120;DHT22;64852;48.092;-1.640;2023-12-14T00:48:55;9.80;99.90
76120;DHT22;64852;48.092;-1.640;2023-12-14T00:51:20;9.50;99.90
76120;DHT22;64852;48.092;-1.640;2023-12-14T00:53:46;9.20;99.90
76120;DHT22;64852;48.092;-1.640;2023-12-14T00:56:11;10.20;99.90
76120;DHT22;64852;48.092;-1.640;2023-12-14T00:58:37;9.10;99.90
76120;DHT22;64852;48.092;-1.640;2023-12-14T01:01:03;9.60;99.90
76120;DHT22;64852;48.092;-1.640;2023-12-14T01:03:28;9.20;99.90
76120;DHT22;64852;48.092;-1.640;2023-12-14T01:05:54;10.20;99.90
76120;DHT22;64852;48.092;-1.640;2023-12-14T01:08:20;9.90;99.90
76120;DHT22;64852;48.092;-1.640;2023-12-14T01:10:46;9.00;99.90
76120;DHT22;64852;48.092;-1.640;2023-12-14T01:13:11;10.10;99.90
76120;DHT22;64852;48.092;-1.640;2023-12-14T01:15:37;9.20;99.90
76120;DHT22;64852;48.092;-1.640;2023-12-14T01:18:03;9.20;99.90
76120;DHT22;64852;48.092;-1.640;2023-12-14T01:20:29;9.10;99.90
76120;DHT22;64852;48.092;-1.640;2023-12-14T01:22:55;9.10;99.90
76120;DHT22;64852;48.092;-1.640;2023-12-14T01:25:20;9.20;99.90
76120;DHT22;64852;48.092;-1.640;2023-12-14T01:27:46;9.60;99.90
76120;DHT22;64852;48.092;-1.640;2023-12-14T01:30:12;9.10;99.90
76120;DHT22;64852;48.092;-1.640;2023-12-14T01:32:37;9.00;99.90
76120;DHT22;64852;48.092;-1.640;2023-12-14T01:35:03;9.00;99.90
76120;DHT22;64852;48.092;-1.640;2023-12-14T01:37:29;8.90;99.90
76120;DHT22;64852;48.092;-1.640;2023-12-14T01:39:55;8.90;99.90
76120;DHT22;64852;48.092;-1.640;2023-12-14T01:42:20;9.90;99.90
76120;DHT22;64852;48.092;-1.640;2023-12-14T01:44:46;9.70;99.90
76120;DHT22;64852;48.092;-1.640;2023-12-14T01:47:12;9.50;99.90
76120;DHT22;64852;48.092;-1.640;2023-12-14T01:49:37;9.10;99.90
76120;DHT22;64852;48.092;-1.640;2023-12-14T01:52:03;9.60;99.90
76120;DHT22;64852;48.092;-1.640;2023-12-14T01:54:28;8.70;99.90
76120;DHT22;64852;48.092;-1.640;2023-12-14T01:56:54;9.60;99.90
76120;DHT22;64852;48.092;-1.640;2023-12-14T01:59:20;8.70;99.90
76120;DHT22;64852;48.092;-1.640;2023-12-14T02:01:51;8.70;99.90
76120;DHT22;64852;48.092;-1.640;2023-12-14T02:04:17;8.60;99.90
76120;DHT22;64852;48.092;-1.640;2023-12-14T02:06:43;8.60;99.90
76120;DHT22;64852;48.092;-1.640;2023-12-14T02:09:09;9.00;99.90
76120;DHT22;64852;48.092;-1.640;2023-12-14T02:11:35;9.30;99.90
76120;DHT22;64852;48.092;-1.640;2023-12-14T02:14:05;8.70;99.90
76120;DHT22;64852;48.092;-1.640;2023-12-14T02:16:31;8.90;99.90
76120;DHT22;64852;48.092;-1.640;2023-12-14T02:18:57;9.10;99.90
76120;DHT22;64852;48.092;-1.640;2023-12-14T02:21:22;9.10;99.90
76120;DHT22;64852;48.092;-1.640;2023-12-14T02:23:48;8.60;99.90
76120;DHT22;64852;48.092;-1.640;2023-12-14T02:26:14;8.40;99.90
76120;DHT22;64852;48.092;-1.640;2023-12-14T02:28:39;8.20;99.90
76120;DHT22;64852;48.092;-1.640;2023-12-14T02:31:05;8.20;99.90
76120;DHT22;64852;48.092;-1.640;2023-12-14T02:33:31;8.90;99.90
76120;DHT22;64852;48.092;-1.640;2023-12-14T02:35:57;8.90;99.90
76120;DHT22;64852;48.092;-1.640;2023-12-14T02:38:22;9.00;99.90
76120;DHT22;64852;48.092;-1.640;2023-12-14T02:40:48;8.10;99.90
76120;DHT22;64852;48.092;-1.640;2023-12-14T02:43:15;8.30;99.90
76120;DHT22;64852;48.092;-1.640;2023-12-14T02:45:41;8.10;99.90
76120;DHT22;64852;48.092;-1.640;2023-12-14T02:48:07;8.30;99.90
76120;DHT22;64852;48.092;-1.640;2023-12-14T02:50:32;8.00;99.90
76120;DHT22;64852;48.092;-1.640;2023-12-14T02:52:58;8.00;99.90
76120;DHT22;64852;48.092;-1.640;2023-12-14T02:55:23;9.00;99.90
76120;DHT22;64852;48.092;-1.640;2023-12-14T02:57:49;8.40;99.90
76120;DHT22;64852;48.092;-1.640;2023-12-14T03:00:15;8.20;99.90
76120;DHT22;64852;48.092;-1.640;2023-12-14T03:02:40;7.80;99.90
76120;DHT22;64852;48.092;-1.640;2023-12-14T03:05:06;7.80;99.90
76120;DHT22;64852;48.092;-1.640;2023-12-14T03:07:32;7.70;99.90
76120;DHT22;64852;48.092;-1.640;2023-12-14T03:09:57;8.60;99.90
76120;DHT22;64852;48.092;-1.640;2023-12-14T03:12:23;7.70;99.90
76120;DHT22;64852;48.092;-1.640;2023-12-14T03:14:48;7.70;99.90
76120;DHT22;64852;48.092;-1.640;2023-12-14T03:17:14;7.70;99.90
76120;DHT22;64852;48.092;-1.640;2023-12-14T03:19:41;8.70;99.90
76120;DHT22;64852;48.092;-1.640;2023-12-14T03:22:08;8.60;99.90
76120;DHT22;64852;48.092;-1.640;2023-12-14T03:24:35;8.70;99.90
76120;DHT22;64852;48.092;-1.640;2023-12-14T03:27:01;7.80;99.90
76120;DHT22;64852;48.092;-1.640;2023-12-14T03:29:27;7.80;99.90
76120;DHT22;64852;48.092;-1.640;2023-12-14T03:31:54;7.50;99.90
76120;DHT22;64852;48.092;-1.640;2023-12-14T03:34:20;8.80;99.90
76120;DHT22;64852;48.092;-1.640;2023-12-14T03:36:45;7.50;99.90
76120;DHT22;64852;48.092;-1.640;2023-12-14T03:39:11;7.60;99.90
76120;DHT22;64852;48.092;-1.640;2023-12-14T03:41:37;8.80;99.90
76120;DHT22;64852;48.092;-1.640;2023-12-14T03:44:03;7.50;99.90
76120;DHT22;64852;48.092;-1.640;2023-12-14T03:46:29;7.50;99.90
76120;DHT22;64852;48.092;-1.640;2023-12-14T03:48:55;7.50;99.90
76120;DHT22;64852;48.092;-1.640;2023-12-14T03:51:20;8.10;99.90
76120;DHT22;64852;48.092;-1.640;2023-12-14T03:53:46;8.10;99.90
76120;DHT22;64852;48.092;-1.640;2023-12-14T03:56:12;7.70;99.90
76120;DHT22;64852;48.092;-1.640;2023-12-14T03:58:38;7.50;99.90
76120;DHT22;64852;48.092;-1.640;2023-12-14T04:01:04;8.40;99.90
76120;DHT22;64852;48.092;-1.640;2023-12-14T04:03:29;7.40;99.90
76120;DHT22;64852;48.092;-1.640;2023-12-14T04:05:55;7.80;99.90
76120;DHT22;64852;48.092;-1.640;2023-12-14T04:08:21;7.30;99.90
76120;DHT22;64852;48.092;-1.640;2023-12-14T04:10:46;8.40;99.90
76120;DHT22;64852;48.092;-1.640;2023-12-14T04:13:12;8.60;99.90
76120;DHT22;64852;48.092;-1.640;2023-12-14T04:15:37;7.90;99.90
76120;DHT22;64852;48.092;-1.640;2023-12-14T04:18:03;8.50;99.90
76120;DHT22;64852;48.092;-1.640;2023-12-14T04:20:29;7.10;99.90
76120;DHT22;64852;48.092;-1.640;2023-12-14T04:22:55;8.20;99.90
76120;DHT22;64852;48.092;-1.640;2023-12-14T04:25:20;7.70;99.90
76120;DHT22;64852;48.092;-1.640;2023-12-14T04:27:46;7.80;99.90
76120;DHT22;64852;48.092;-1.640;2023-12-14T04:30:11;7.40;99.90
76120;DHT22;64852;48.092;-1.640;2023-12-14T04:32:38;7.00;99.90
76120;DHT22;64852;48.092;-1.640;2023-12-14T04:35:04;8.20;99.90
76120;DHT22;64852;48.092;-1.640;2023-12-14T04:37:30;7.00;99.90
76120;DHT22;64852;48.092;-1.640;2023-12-14T04:39:57;6.90;99.90
76120;DHT22;64852;48.092;-1.640;2023-12-14T04:42:22;7.40;99.90
76120;DHT22;64852;48.092;-1.640;2023-12-14T04:44:48;7.80;99.90
76120;DHT22;64852;48.092;-1.640;2023-12-14T04:47:14;8.30;99.90
76120;DHT22;64852;48.092;-1.640;2023-12-14T04:49:39;8.30;99.90
76120;DHT22;64852;48.092;-1.640;2023-12-14T04:52:05;7.90;99.90
76120;DHT22;64852;48.092;-1.640;2023-12-14T04:54:31;7.80;99.90
76120;DHT22;64852;48.092;-1.640;2023-12-14T04:56:57;7.50;99.90
76120;DHT22;64852;48.092;-1.640;2023-12-14T04:59:22;7.40;99.90
76120;DHT22;64852;48.092;-1.640;2023-12-14T05:01:48;6.90;99.90
76120;DHT22;64852;48.092;-1.640;2023-12-14T05:04:14;7.00;99.90
76120;DHT22;64852;48.092;-1.640;2023-12-14T05:06:39;8.10;99.90
76120;DHT22;64852;48.092;-1.640;2023-12-14T05:09:06;7.90;99.90
76120;DHT22;64852;48.092;-1.640;2023-12-14T05:11:32;7.90;99.90
76120;DHT22;64852;48.092;-1.640;2023-12-14T05:13:58;8.30;99.90
76120;DHT22;64852;48.092;-1.640;2023-12-14T05:16:24;8.00;99.90
76120;DHT22;64852;48.092;-1.640;2023-12-14T05:18:53;7.70;99.90
76120;DHT22;64852;48.092;-1.640;2023-12-14T05:21:19;8.60;99.90
76120;DHT22;64852;48.092;-1.640;2023-12-14T05:23:44;8.20;99.90
76120;DHT22;64852;48.092;-1.640;2023-12-14T05:26:10;7.00;99.90
76120;DHT22;64852;48.092;-1.640;2023-12-14T05:28:36;7.60;99.90
76120;DHT22;64852;48.092;-1.640;2023-12-14T05:31:01;8.20;99.90
76120;DHT22;64852;48.092;-1.640;2023-12-14T05:33:28;7.10;99.90
76120;DHT22;64852;48.092;-1.640;2023-12-14T05:35:53;7.20;99.90
76120;DHT22;64852;48.092;-1.640;2023-12-14T05:38:19;7.30;99.90
76120;DHT22;64852;48.092;-1.640;2023-12-14T05:40:45;7.50;99.90
76120;DHT22;64852;48.092;-1.640;2023-12-14T05:43:11;7.50;99.90
76120;DHT22;64852;48.092;-1.640;2023-12-14T05:45:36;7.90;99.90
76120;DHT22;64852;48.092;-1.640;2023-12-14T05:48:02;8.10;99.90
76120;DHT22;64852;48.092;-1.640;2023-12-14T05:50:30;7.60;99.90
76120;DHT22;64852;48.092;-1.640;2023-12-14T05:52:56;8.50;99.90
76120;DHT22;64852;48.092;-1.640;2023-12-14T05:55:22;8.00;99.90
76120;DHT22;64852;48.092;-1.640;2023-12-14T05:57:50;8.60;99.90
76120;DHT22;64852;48.092;-1.640;2023-12-14T06:00:17;7.60;99.90
76120;DHT22;64852;48.092;-1.640;2023-12-14T06:02:42;7.50;99.90
76120;DHT22;64852;48.092;-1.640;2023-12-14T06:05:08;7.50;99.90
76120;DHT22;64852;48.092;-1.640;2023-12-14T06:07:33;7.50;99.90
76120;DHT22;64852;48.092;-1.640;2023-12-14T06:09:59;7.40;99.90
76120;DHT22;64852;48.092;-1.640;2023-12-14T06:12:26;8.20;99.90
76120;DHT22;64852;48.092;-1.640;2023-12-14T06:14:52;8.20;99.90
76120;DHT22;64852;48.092;-1.640;2023-12-14T06:17:18;8.30;99.90
76120;DHT22;64852;48.092;-1.640;2023-12-14T06:19:43;8.20;99.90
76120;DHT22;64852;48.092;-1.640;2023-12-14T06:22:09;7.40;99.90
76120;DHT22;64852;48.092;-1.640;2023-12-14T06:24:34;7.80;99.90
76120;DHT22;64852;48.092;-1.640;2023-12-14T06:27:00;7.50;99.90
76120;DHT22;64852;48.092;-1.640;2023-12-14T06:29:26;8.40;99.90
76120;DHT22;64852;48.092;-1.640;2023-12-14T06:31:51;8.10;99.90
76120;DHT22;64852;48.092;-1.640;2023-12-14T06:34:17;8.20;99.90
76120;DHT22;64852;48.092;-1.640;2023-12-14T06:36:44;8.60;99.90
76120;DHT22;64852;48.092;-1.640;2023-12-14T06:39:10;8.20;99.90
76120;DHT22;64852;48.092;-1.640;2023-12-14T06:41:36;8.40;99.90
76120;DHT22;64852;48.092;-1.640;2023-12-14T06:44:02;8.10;99.90
76120;DHT22;64852;48.092;-1.640;2023-12-14T06:46:28;7.10;99.90
76120;DHT22;64852;48.092;-1.640;2023-12-14T06:48:54;7.60;99.90
76120;DHT22;64852;48.092;-1.640;2023-12-14T06:51:20;7.20;99.90
76120;DHT22;64852;48.092;-1.640;2023-12-14T06:53:46;7.10;99.90
76120;DHT22;64852;48.092;-1.640;2023-12-14T06:56:12;7.20;99.90
76120;DHT22;64852;48.092;-1.640;2023-12-14T06:58:39;7.10;99.90
76120;DHT22;64852;48.092;-1.640;2023-12-14T07:01:05;7.60;99.90
76120;DHT22;64852;48.092;-1.640;2023-12-14T07:03:31;8.10;99.90
76120;DHT22;64852;48.092;-1.640;2023-12-14T07:05:57;8.40;99.90
76120;DHT22;64852;48.092;-1.640;2023-12-14T07:08:23;7.60;99.90
76120;DHT22;64852;48.092;-1.640;2023-12-14T07:10:49;7.90;99.90
76120;DHT22;64852;48.092;-1.640;2023-12-14T07:13:15;8.00;99.90
76120;DHT22;64852;48.092;-1.640;2023-12-14T07:15:40;8.40;99.90
76120;DHT22;64852;48.092;-1.640;2023-12-14T07:18:06;8.00;99.90
76120;DHT22;64852;48.092;-1.640;2023-12-14T07:20:32;7.60;99.90
76120;DHT22;64852;48.092;-1.640;2023-12-14T07:22:57;7.40;99.90
76120;DHT22;64852;48.092;-1.640;2023-12-14T07:25:23;8.70;99.90
76120;DHT22;64852;48.092;-1.640;2023-12-14T07:27:48;7.30;99.90
76120;DHT22;64852;48.092;-1.640;2023-12-14T07:30:14;7.50;99.90
76120;DHT22;64852;48.092;-1.640;2023-12-14T07:32:39;7.40;99.90
76120;DHT22;64852;48.092;-1.640;2023-12-14T07:35:05;8.20;99.90
76120;DHT22;64852;48.092;-1.640;2023-12-14T07:37:31;7.40;99.90
76120;DHT22;64852;48.092;-1.640;2023-12-14T07:39:56;7.40;99.90
76120;DHT22;64852;48.092;-1.640;2023-12-14T07:42:23;8.40;99.90
76120;DHT22;64852;48.092;-1.640;2023-12-14T07:44:49;7.40;99.90
76120;DHT22;64852;48.092;-1.640;2023-12-14T07:47:14;8.30;99.90
76120;DHT22;64852;48.092;-1.640;2023-12-14T07:49:40;7.40;99.90
76120;DHT22;64852;48.092;-1.640;2023-12-14T07:52:05;7.50;99.90
76120;DHT22;64852;48.092;-1.640;2023-12-14T07:54:31;7.50;99.90
76120;DHT22;64852;48.092;-1.640;2023-12-14T07:56:56;7.90;99.90
76120;DHT22;64852;48.092;-1.640;2023-12-14T07:59:22;7.70;99.90
76120;DHT22;64852;48.092;-1.640;2023-12-14T08:01:48;9.50;99.90
76120;DHT22;64852;48.092;-1.640;2023-12-14T08:04:14;7.70;99.90
76120;DHT22;64852;48.092;-1.640;2023-12-14T08:06:39;7.60;99.90
76120;DHT22;64852;48.092;-1.640;2023-12-14T08:09:05;8.20;99.90
76120;DHT22;64852;48.092;-1.640;2023-12-14T08:11:33;8.30;99.90
76120;DHT22;64852;48.092;-1.640;2023-12-14T08:13:59;8.10;99.90
76120;DHT22;64852;48.092;-1.640;2023-12-14T08:16:24;7.90;99.90
76120;DHT22;64852;48.092;-1.640;2023-12-14T08:18:50;8.30;99.90
76120;DHT22;64852;48.092;-1.640;2023-12-14T08:21:16;8.70;99.90
76120;DHT22;64852;48.092;-1.640;2023-12-14T08:23:42;7.90;99.90
76120;DHT22;64852;48.092;-1.640;2023-12-14T08:26:07;8.40;99.90
76120;DHT22;64852;48.092;-1.640;2023-12-14T08:28:35;8.30;99.90
76120;DHT22;64852;48.092;-1.640;2023-12-14T08:31:01;7.90;99.90
76120;DHT22;64852;48.092;-1.640;2023-12-14T08:33:28;8.90;99.90
76120;DHT22;64852;48.092;-1.640;2023-12-14T08:35:54;8.00;99.90
76120;DHT22;64852;48.092;-1.640;2023-12-14T08:38:20;8.00;99.90
76120;DHT22;64852;48.092;-1.640;2023-12-14T08:40:45;8.00;99.90
76120;DHT22;64852;48.092;-1.640;2023-12-14T08:43:11;8.60;99.90
76120;DHT22;64852;48.092;-1.640;2023-12-14T08:45:36;9.20;99.90
76120;DHT22;64852;48.092;-1.640;2023-12-14T08:48:01;9.00;99.90
76120;DHT22;64852;48.092;-1.640;2023-12-14T08:50:27;8.00;99.90
76120;DHT22;64852;48.092;-1.640;2023-12-14T08:52:52;9.20;99.90
76120;DHT22;64852;48.092;-1.640;2023-12-14T08:55:18;8.90;99.90
76120;DHT22;64852;48.092;-1.640;2023-12-14T08:57:44;8.00;99.90
76120;DHT22;64852;48.092;-1.640;2023-12-14T09:00:09;8.00;99.90
76120;DHT22;64852;48.092;-1.640;2023-12-14T09:02:35;8.20;99.90
76120;DHT22;64852;48.092;-1.640;2023-12-14T09:05:01;8.10;99.90
76120;DHT22;64852;48.092;-1.640;2023-12-14T09:07:26;8.20;99.90
76120;DHT22;64852;48.092;-1.640;2023-12-14T09:09:52;8.30;99.90
76120;DHT22;64852;48.092;-1.640;2023-12-14T09:12:17;8.90;99.90
76120;DHT22;64852;48.092;-1.640;2023-12-14T09:14:43;8.20;99.90
76120;DHT22;64852;48.092;-1.640;2023-12-14T09:17:08;9.30;99.90
76120;DHT22;64852;48.092;-1.640;2023-12-14T09:19:34;9.20;99.90
76120;DHT22;64852;48.092;-1.640;2023-12-14T09:21:59;8.50;99.90
76120;DHT22;64852;48.092;-1.640;2023-12-14T09:24:25;8.40;99.90
76120;DHT22;64852;48.092;-1.640;2023-12-14T09:26:50;9.30;99.90
76120;DHT22;64852;48.092;-1.640;2023-12-14T09:29:16;8.90;99.90
76120;DHT22;64852;48.092;-1.640;2023-12-14T09:31:42;8.50;99.90
76120;DHT22;64852;48.092;-1.640;2023-12-14T09:34:08;8.70;99.90
76120;DHT22;64852;48.092;-1.640;2023-12-14T09:36:34;9.00;99.90
76120;DHT22;64852;48.092;-1.640;2023-12-14T09:38:59;8.70;99.90
76120;DHT22;64852;48.092;-1.640;2023-12-14T09:41:25;8.70;99.90
76120;DHT22;64852;48.092;-1.640;2023-12-14T09:43:51;8.80;99.90
76120;DHT22;64852;48.092;-1.640;2023-12-14T09:46:17;8.70;99.90
76120;DHT22;64852;48.092;-1.640;2023-12-14T09:48:43;8.80;99.90
76120;DHT22;64852;48.092;-1.640;2023-12-14T09:51:09;8.80;99.90
76120;DHT22;64852;48.092;-1.640;2023-12-14T09:53:35;8.80;99.90
76120;DHT22;64852;48.092;-1.640;2023-12-14T09:56:00;8.90;99.90
76120;DHT22;64852;48.092;-1.640;2023-12-14T09:58:26;8.90;99.90
76120;DHT22;64852;48.092;-1.640;2023-12-14T10:00:52;9.00;99.90
76120;DHT22;64852;48.092;-1.640;2023-12-14T10:03:27;9.00;99.90
76120;DHT22;64852;48.092;-1.640;2023-12-14T10:05:54;9.00;99.90
76120;DHT22;64852;48.092;-1.640;2023-12-14T10:08:19;9.60;99.90
76120;DHT22;64852;48.092;-1.640;2023-12-14T10:10:46;9.10;99.90
76120;DHT22;64852;48.092;-1.640;2023-12-14T10:13:14;9.10;99.90
76120;DHT22;64852;48.092;-1.640;2023-12-14T10:15:40;9.20;99.90
76120;DHT22;64852;48.092;-1.640;2023-12-14T10:18:06;9.10;99.90
76120;DHT22;64852;48.092;-1.640;2023-12-14T10:20:32;9.50;99.90
76120;DHT22;64852;48.092;-1.640;2023-12-14T10:22:57;9.20;99.90
76120;DHT22;64852;48.092;-1.640;2023-12-14T10:25:23;9.50;99.90
76120;DHT22;64852;48.092;-1.640;2023-12-14T10:27:50;10.20;99.90
76120;DHT22;64852;48.092;-1.640;2023-12-14T10:30:18;9.30;99.90
76120;DHT22;64852;48.092;-1.640;2023-12-14T10:32:48;9.40;99.90
76120;DHT22;64852;48.092;-1.640;2023-12-14T10:35:14;9.50;99.90
76120;DHT22;64852;48.092;-1.640;2023-12-14T10:37:41;9.50;99.90
76120;DHT22;64852;48.092;-1.640;2023-12-14T10:40:07;10.00;99.90
76120;DHT22;64852;48.092;-1.640;2023-12-14T10:42:35;9.60;99.90
76120;DHT22;64852;48.092;-1.640;2023-12-14T10:45:02;9.60;99.90
76120;DHT22;64852;48.092;-1.640;2023-12-14T10:47:27;9.60;99.90
76120;DHT22;64852;48.092;-1.640;2023-12-14T10:49:53;9.50;99.90
76120;DHT22;64852;48.092;-1.640;2023-12-14T10:52:19;10.20;99.90
76120;DHT22;64852;48.092;-1.640;2023-12-14T10:54:47;9.80;99.90
76120;DHT22;64852;48.092;-1.640;2023-12-14T10:57:14;10.40;99.90
76120;DHT22;64852;48.092;-1.640;2023-12-14T10:59:42;9.60;99.90
76120;DHT22;64852;48.092;-1.640;2023-12-14T11:02:08;9.60;99.90
76120;DHT22;64852;48.092;-1.640;2023-12-14T11:05:05;10.80;99.90
76120;DHT22;64852;48.092;-1.640;2023-12-14T11:07:48;9.80;99.90
76120;DHT22;64852;48.092;-1.640;2023-12-14T11:10:15;10.10;99.90
76120;DHT22;64852;48.092;-1.640;2023-12-14T11:12:54;10.00;99.90
76120;DHT22;64852;48.092;-1.640;2023-12-14T11:15:21;10.30;99.90
76120;DHT22;64852;48.092;-1.640;2023-12-14T11:23:26;10.40;99.90
76120;DHT22;64852;48.092;-1.640;2023-12-14T11:25:58;10.50;99.90
76120;DHT22;64852;48.092;-1.640;2023-12-14T11:28:24;10.50;99.90
76120;DHT22;64852;48.092;-1.640;2023-12-14T11:30:50;10.60;99.90
76120;DHT22;64852;48.092;-1.640;2023-12-14T11:33:16;10.70;99.90
76120;DHT22;64852;48.092;-1.640;2023-12-14T11:35:42;11.80;99.90
76120;DHT22;64852;48.092;-1.640;2023-12-14T11:38:07;11.60;99.90
76120;DHT22;64852;48.092;-1.640;2023-12-14T11:40:44;11.70;99.90
76120;DHT22;64852;48.092;-1.640;2023-12-14T11:43:10;10.90;99.90
76120;DHT22;64852;48.092;-1.640;2023-12-14T11:45:37;10.80;99.90
76120;DHT22;64852;48.092;-1.640;2023-12-14T11:48:04;11.20;99.90
76120;DHT22;64852;48.092;-1.640;2023-12-14T11:50:32;10.90;99.90
76120;DHT22;64852;48.092;-1.640;2023-12-14T11:53:02;11.00;99.90
76120;DHT22;64852;48.092;-1.640;2023-12-14T11:55:29;10.80;99.90
76120;DHT22;64852;48.092;-1.640;2023-12-14T11:57:58;10.90;99.90
76120;DHT22;64852;48.092;-1.640;2023-12-14T12:00:29;11.00;99.90
76120;DHT22;64852;48.092;-1.640;2023-12-14T12:03:12;10.90;99.90
76120;DHT22;64852;48.092;-1.640;2023-12-14T12:05:47;11.20;99.90
76120;DHT22;64852;48.092;-1.640;2023-12-14T12:08:15;11.00;99.90
76120;DHT22;64852;48.092;-1.640;2023-12-14T12:10:42;11.00;99.90
76120;DHT22;64852;48.092;-1.640;2023-12-14T12:13:19;11.10;99.90
76120;DHT22;64852;48.092;-1.640;2023-12-14T12:15:46;11.00;99.90
76120;DHT22;64852;48.092;-1.640;2023-12-14T12:18:14;10.90;99.90
76120;DHT22;64852;48.092;-1.640;2023-12-14T12:20:40;11.00;99.90
76120;DHT22;64852;48.092;-1.640;2023-12-14T12:23:06;11.10;99.90
76120;DHT22;64852;48.092;-1.640;2023-12-14T12:25:32;11.60;99.90
76120;DHT22;64852;48.092;-1.640;2023-12-14T12:27:58;11.10;99.90
76120;DHT22;64852;48.092;-1.640;2023-12-14T12:30:25;11.30;99.90
76120;DHT22;64852;48.092;-1.640;2023-12-14T12:32:50;11.10;99.90
76120;DHT22;64852;48.092;-1.640;2023-12-14T12:35:18;11.00;99.90
76120;DHT22;64852;48.092;-1.640;2023-12-14T12:37:43;11.10;99.90
76120;DHT22;64852;48.092;-1.640;2023-12-14T12:40:10;11.90;99.90
76120;DHT22;64852;48.092;-1.640;2023-12-14T12:42:36;11.00;99.90
76120;DHT22;64852;48.092;-1.640;2023-12-14T12:45:02;11.00;99.90
76120;DHT22;64852;48.092;-1.640;2023-12-14T12:47:27;11.00;99.90
76120;DHT22;64852;48.092;-1.640;2023-12-14T12:49:53;11.40;99.90
76120;DHT22;64852;48.092;-1.640;2023-12-14T12:52:18;11.40;99.90
76120;DHT22;64852;48.092;-1.640;2023-12-14T12:54:44;11.10;99.90
76120;DHT22;64852;48.092;-1.640;2023-12-14T12:57:10;11.20;99.90
76120;DHT22;64852;48.092;-1.640;2023-12-14T12:59:36;11.60;99.90
76120;DHT22;64852;48.092;-1.640;2023-12-14T13:02:02;11.10;99.90
76120;DHT22;64852;48.092;-1.640;2023-12-14T13:04:28;11.10;99.90
76120;DHT22;64852;48.092;-1.640;2023-12-14T13:06:56;11.20;99.90
76120;DHT22;64852;48.092;-1.640;2023-12-14T13:09:22;11.30;99.90
76120;DHT22;64852;48.092;-1.640;2023-12-14T13:11:48;11.10;99.90
76120;DHT22;64852;48.092;-1.640;2023-12-14T13:14:15;11.40;99.90
76120;DHT22;64852;48.092;-1.640;2023-12-14T13:16:43;11.30;99.90
76120;DHT22;64852;48.092;-1.640;2023-12-14T13:19:09;11.30;99.90
76120;DHT22;64852;48.092;-1.640;2023-12-14T13:21:35;11.30;99.90
76120;DHT22;64852;48.092;-1.640;2023-12-14T13:24:02;11.80;99.90
76120;DHT22;64852;48.092;-1.640;2023-12-14T13:26:28;11.90;99.90
76120;DHT22;64852;48.092;-1.640;2023-12-14T13:28:54;11.80;99.90
76120;DHT22;64852;48.092;-1.640;2023-12-14T13:31:20;11.70;99.90
76120;DHT22;64852;48.092;-1.640;2023-12-14T13:33:46;12.00;99.90
76120;DHT22;64852;48.092;-1.640;2023-12-14T13:36:13;11.30;99.90
76120;DHT22;64852;48.092;-1.640;2023-12-14T13:38:40;11.20;99.90
76120;DHT22;64852;48.092;-1.640;2023-12-14T13:41:09;11.20;99.90
76120;DHT22;64852;48.092;-1.640;2023-12-14T13:43:35;11.40;99.90
76120;DHT22;64852;48.092;-1.640;2023-12-14T13:46:01;11.70;99.90
76120;DHT22;64852;48.092;-1.640;2023-12-14T13:48:27;11.20;99.90
76120;DHT22;64852;48.092;-1.640;2023-12-14T13:50:54;11.50;99.90
76120;DHT22;64852;48.092;-1.640;2023-12-14T13:53:20;11.40;99.90
76120;DHT22;64852;48.092;-1.640;2023-12-14T13:55:46;11.70;99.90
76120;DHT22;64852;48.092;-1.640;2023-12-14T13:58:12;11.30;99.90
76120;DHT22;64852;48.092;-1.640;2023-12-14T14:00:38;11.40;99.90
76120;DHT22;64852;48.092;-1.640;2023-12-14T14:03:04;11.20;99.90
76120;DHT22;64852;48.092;-1.640;2023-12-14T14:05:33;11.10;99.90
76120;DHT22;64852;48.092;-1.640;2023-12-14T14:07:59;11.40;99.90
76120;DHT22;64852;48.092;-1.640;2023-12-14T14:10:25;11.40;99.90
76120;DHT22;64852;48.092;-1.640;2023-12-14T14:12:51;11.40;99.90
76120;DHT22;64852;48.092;-1.640;2023-12-14T14:15:17;11.40;99.90
76120;DHT22;64852;48.092;-1.640;2023-12-14T14:17:43;11.40;99.90
76120;DHT22;64852;48.092;-1.640;2023-12-14T14:20:09;11.60;99.90
76120;DHT22;64852;48.092;-1.640;2023-12-14T14:22:36;11.40;99.90
76120;DHT22;64852;48.092;-1.640;2023-12-14T14:25:05;11.30;99.90
76120;DHT22;64852;48.092;-1.640;2023-12-14T14:27:33;11.50;99.90
76120;DHT22;64852;48.092;-1.640;2023-12-14T14:29:59;11.40;99.90
76120;DHT22;64852;48.092;-1.640;2023-12-14T14:32:25;11.60;99.90
76120;DHT22;64852;48.092;-1.640;2023-12-14T14:34:51;11.50;99.90
76120;DHT22;64852;48.092;-1.640;2023-12-14T14:37:18;11.40;99.90
76120;DHT22;64852;48.092;-1.640;2023-12-14T14:39:44;11.70;99.90
76120;DHT22;64852;48.092;-1.640;2023-12-14T14:42:10;11.60;99.90
76120;DHT22;64852;48.092;-1.640;2023-12-14T14:44:35;12.60;99.90
76120;DHT22;64852;48.092;-1.640;2023-12-14T14:47:02;12.10;99.90
76120;DHT22;64852;48.092;-1.640;2023-12-14T14:52:03;11.70;99.90
76120;DHT22;64852;48.092;-1.640;2023-12-14T14:54:29;11.70;99.90
76120;DHT22;64852;48.092;-1.640;2023-12-14T14:56:55;11.70;99.90
76120;DHT22;64852;48.092;-1.640;2023-12-14T14:59:21;11.90;99.90
76120;DHT22;64852;48.092;-1.640;2023-12-14T15:01:48;11.80;99.90
76120;DHT22;64852;48.092;-1.640;2023-12-14T15:04:14;11.70;99.90
76120;DHT22;64852;48.092;-1.640;2023-12-14T15:06:39;11.60;99.90
76120;DHT22;64852;48.092;-1.640;2023-12-14T15:09:05;11.60;99.90
76120;DHT22;64852;48.092;-1.640;2023-12-14T15:11:33;11.60;99.90
76120;DHT22;64852;48.092;-1.640;2023-12-14T15:13:58;11.70;99.90
76120;DHT22;64852;48.092;-1.640;2023-12-14T15:16:24;11.50;99.90
76120;DHT22;64852;48.092;-1.640;2023-12-14T15:18:53;11.70;99.90
76120;DHT22;64852;48.092;-1.640;2023-12-14T15:21:19;11.90;99.90
76120;DHT22;64852;48.092;-1.640;2023-12-14T15:23:45;11.70;99.90
76120;DHT22;64852;48.092;-1.640;2023-12-14T15:26:13;11.80;99.90
76120;DHT22;64852;48.092;-1.640;2023-12-14T15:28:39;11.70;99.90